N12215 KOKB-KVGT
Flight info
| Callsign | N12215 |
|---|---|
| Flight time | 1h 33m |
| Altitude | 15000 |
| Route | OCN V208 TNP NTNDO1 |
| Aircraft | P28T/L-VGD/C |
Departure
| Time | 2026-04-21 03:29 |
|---|---|
| Airport | Oceanside Municipal Airport (KOKB) |
Arrival
| Time | 2026-04-21 05:03 |
|---|---|
| Airport | North Las Vegas Airport (KVGT) |
| Time | Latitude | Longitude | Altitude | Speed | Heading |
|---|---|---|---|---|---|
| 2026-04-21 03:18 | 33.21803 | -117.34857 | 30 ft | 0 kts | 350° |
| 2026-04-21 03:26 | 33.21805 | -117.34857 | 30 ft | 4 kts | 8° |
| 2026-04-21 03:26 | 33.21823 | -117.34797 | 30 ft | 8 kts | 87° |
| 2026-04-21 03:26 | 33.21828 | -117.34744 | 30 ft | 0 kts | 62° |
| 2026-04-21 03:28 | 33.21839 | -117.34730 | 30 ft | 8 kts | 26° |
| 2026-04-21 03:28 | 33.21851 | -117.34790 | 30 ft | 24 kts | 258° |
| 2026-04-21 03:29 | 33.21790 | -117.35204 | 33 ft | 70 kts | 263° |
| 2026-04-21 03:29 | 33.21756 | -117.35751 | 250 ft | 62 kts | 268° |
| 2026-04-21 03:29 | 33.21738 | -117.36285 | 447 ft | 69 kts | 263° |
| 2026-04-21 03:29 | 33.21816 | -117.36910 | 638 ft | 81 kts | 278° |
| 2026-04-21 03:30 | 33.21908 | -117.37579 | 908 ft | 81 kts | 258° |
| 2026-04-21 03:30 | 33.21769 | -117.38275 | 1083 ft | 93 kts | 252° |
| 2026-04-21 03:30 | 33.21575 | -117.39052 | 1287 ft | 100 kts | 251° |
| 2026-04-21 03:30 | 33.21373 | -117.39825 | 1565 ft | 99 kts | 251° |
| 2026-04-21 03:31 | 33.21160 | -117.40614 | 1812 ft | 101 kts | 251° |
| 2026-04-21 03:31 | 33.20937 | -117.41431 | 2038 ft | 104 kts | 251° |
| 2026-04-21 03:31 | 33.20832 | -117.42271 | 2254 ft | 108 kts | 279° |
| 2026-04-21 03:31 | 33.21242 | -117.43009 | 2493 ft | 107 kts | 323° |
| 2026-04-21 03:32 | 33.21948 | -117.43200 | 2745 ft | 108 kts | 6° |
| 2026-04-21 03:32 | 33.22613 | -117.42783 | 2995 ft | 108 kts | 36° |
| 2026-04-21 03:32 | 33.23233 | -117.42323 | 3298 ft | 104 kts | 24° |
| 2026-04-21 03:32 | 33.23817 | -117.41754 | 3422 ft | 117 kts | 57° |
| 2026-04-21 03:33 | 33.23950 | -117.40784 | 3598 ft | 123 kts | 92° |
| 2026-04-21 03:33 | 33.23865 | -117.39839 | 3956 ft | 112 kts | 97° |
| 2026-04-21 03:33 | 33.23754 | -117.38905 | 4181 ft | 114 kts | 98° |
| 2026-04-21 03:33 | 33.23644 | -117.37978 | 4440 ft | 113 kts | 98° |
| 2026-04-21 03:34 | 33.23533 | -117.37045 | 4674 ft | 114 kts | 98° |
| 2026-04-21 03:34 | 33.23423 | -117.36111 | 4921 ft | 115 kts | 98° |
| 2026-04-21 03:34 | 33.23313 | -117.35181 | 5202 ft | 112 kts | 97° |
| 2026-04-21 03:34 | 33.23206 | -117.34254 | 5413 ft | 115 kts | 98° |
| 2026-04-21 03:35 | 33.23096 | -117.33311 | 5685 ft | 113 kts | 98° |
| 2026-04-21 03:35 | 33.22986 | -117.32373 | 5913 ft | 115 kts | 98° |
| 2026-04-21 03:35 | 33.22877 | -117.31432 | 6163 ft | 115 kts | 99° |
| 2026-04-21 03:35 | 33.22764 | -117.30482 | 6395 ft | 117 kts | 99° |
| 2026-04-21 03:36 | 33.22649 | -117.29524 | 6646 ft | 116 kts | 99° |
| 2026-04-21 03:36 | 33.22536 | -117.28568 | 6879 ft | 117 kts | 100° |
| 2026-04-21 03:36 | 33.22423 | -117.27608 | 7127 ft | 117 kts | 101° |
| 2026-04-21 03:36 | 33.22309 | -117.26646 | 7368 ft | 117 kts | 100° |
| 2026-04-21 03:37 | 33.22197 | -117.25687 | 7606 ft | 118 kts | 101° |
| 2026-04-21 03:37 | 33.22082 | -117.24717 | 7854 ft | 117 kts | 101° |
| 2026-04-21 03:37 | 33.21968 | -117.23747 | 8090 ft | 118 kts | 101° |
| 2026-04-21 03:37 | 33.21856 | -117.22804 | 8371 ft | 115 kts | 101° |
| 2026-04-21 03:38 | 33.21741 | -117.21829 | 8584 ft | 118 kts | 101° |
| 2026-04-21 03:38 | 33.21627 | -117.20877 | 8844 ft | 116 kts | 101° |
| 2026-04-21 03:38 | 33.21513 | -117.19904 | 9059 ft | 119 kts | 101° |
| 2026-04-21 03:38 | 33.21401 | -117.18952 | 9343 ft | 115 kts | 103° |
| 2026-04-21 03:39 | 33.21282 | -117.17979 | 9510 ft | 122 kts | 102° |
| 2026-04-21 03:39 | 33.21169 | -117.17004 | 9802 ft | 116 kts | 102° |
| 2026-04-21 03:39 | 33.21052 | -117.16023 | 9988 ft | 121 kts | 103° |
| 2026-04-21 03:39 | 33.20938 | -117.15061 | 10297 ft | 115 kts | 103° |
| 2026-04-21 03:40 | 33.20826 | -117.14118 | 10548 ft | 114 kts | 103° |
| 2026-04-21 03:40 | 33.20719 | -117.13206 | 10825 ft | 111 kts | 102° |
| 2026-04-21 03:40 | 33.20609 | -117.12282 | 11060 ft | 113 kts | 103° |
| 2026-04-21 03:40 | 33.20501 | -117.11359 | 11313 ft | 112 kts | 102° |
| 2026-04-21 03:41 | 33.20391 | -117.10430 | 11543 ft | 114 kts | 103° |
| 2026-04-21 03:41 | 33.20278 | -117.09492 | 11774 ft | 114 kts | 103° |
| 2026-04-21 03:41 | 33.20167 | -117.08560 | 11992 ft | 115 kts | 103° |
| 2026-04-21 03:41 | 33.20047 | -117.07608 | 12230 ft | 115 kts | 106° |
| 2026-04-21 03:42 | 33.19928 | -117.06662 | 12450 ft | 117 kts | 105° |
| 2026-04-21 03:42 | 33.19810 | -117.05711 | 12689 ft | 116 kts | 105° |
| 2026-04-21 03:42 | 33.19693 | -117.04757 | 12892 ft | 118 kts | 105° |
| 2026-04-21 03:42 | 33.19577 | -117.03792 | 13131 ft | 117 kts | 105° |
| 2026-04-21 03:43 | 33.19460 | -117.02820 | 13332 ft | 119 kts | 105° |
| 2026-04-21 03:43 | 33.19341 | -117.01834 | 13553 ft | 119 kts | 105° |
| 2026-04-21 03:43 | 33.19221 | -117.00845 | 13760 ft | 120 kts | 105° |
| 2026-04-21 03:43 | 33.19104 | -116.99869 | 13963 ft | 120 kts | 106° |
| 2026-04-21 03:44 | 33.18987 | -116.98887 | 14175 ft | 120 kts | 106° |
| 2026-04-21 03:44 | 33.18867 | -116.97900 | 14374 ft | 121 kts | 105° |
| 2026-04-21 03:44 | 33.18745 | -116.96904 | 14590 ft | 119 kts | 105° |
| 2026-04-21 03:44 | 33.18627 | -116.95925 | 14757 ft | 123 kts | 104° |
| 2026-04-21 03:45 | 33.18505 | -116.94897 | 14911 ft | 127 kts | 104° |
| 2026-04-21 03:45 | 33.18375 | -116.93824 | 15007 ft | 135 kts | 105° |
| 2026-04-21 03:45 | 33.18228 | -116.92649 | 14979 ft | 149 kts | 104° |
| 2026-04-21 03:45 | 33.18074 | -116.91397 | 14974 ft | 157 kts | 104° |
| 2026-04-21 03:46 | 33.17915 | -116.90105 | 14972 ft | 163 kts | 104° |
| 2026-04-21 03:46 | 33.17750 | -116.88757 | 14965 ft | 167 kts | 104° |
| 2026-04-21 03:46 | 33.17582 | -116.87379 | 14960 ft | 169 kts | 104° |
| 2026-04-21 03:46 | 33.17413 | -116.85981 | 14958 ft | 171 kts | 104° |
| 2026-04-21 03:47 | 33.17242 | -116.84571 | 14971 ft | 171 kts | 104° |
| 2026-04-21 03:47 | 33.17071 | -116.83158 | 14973 ft | 172 kts | 104° |
| 2026-04-21 03:47 | 33.16895 | -116.81736 | 14956 ft | 174 kts | 103° |
| 2026-04-21 03:47 | 33.16723 | -116.80306 | 14945 ft | 173 kts | 103° |
| 2026-04-21 03:48 | 33.16549 | -116.78889 | 14935 ft | 172 kts | 104° |
| 2026-04-21 03:48 | 33.16377 | -116.77480 | 14947 ft | 172 kts | 104° |
| 2026-04-21 03:48 | 33.16205 | -116.76070 | 14944 ft | 172 kts | 104° |
| 2026-04-21 03:48 | 33.16032 | -116.74647 | 14954 ft | 172 kts | 103° |
| 2026-04-21 03:49 | 33.15863 | -116.73245 | 14965 ft | 172 kts | 104° |
| 2026-04-21 03:49 | 33.15689 | -116.71829 | 14964 ft | 173 kts | 104° |
| 2026-04-21 03:49 | 33.15513 | -116.70396 | 14955 ft | 173 kts | 103° |
| 2026-04-21 03:49 | 33.15340 | -116.68980 | 14954 ft | 172 kts | 103° |
| 2026-04-21 03:50 | 33.15168 | -116.67583 | 14964 ft | 172 kts | 104° |
| 2026-04-21 03:50 | 33.14993 | -116.66173 | 14965 ft | 172 kts | 104° |
| 2026-04-21 03:50 | 33.14816 | -116.64743 | 14963 ft | 172 kts | 103° |
| 2026-04-21 03:50 | 33.14642 | -116.63345 | 14972 ft | 172 kts | 104° |
| 2026-04-21 03:51 | 33.14465 | -116.61926 | 14980 ft | 172 kts | 103° |
| 2026-04-21 03:51 | 33.14288 | -116.60513 | 14983 ft | 172 kts | 103° |
| 2026-04-21 03:51 | 33.14320 | -116.59083 | 14968 ft | 181 kts | 73° |
| 2026-04-21 03:51 | 33.15088 | -116.57906 | 14979 ft | 183 kts | 50° |
| 2026-04-21 03:52 | 33.16025 | -116.56848 | 15002 ft | 184 kts | 36° |
| 2026-04-21 03:52 | 33.17072 | -116.55959 | 15010 ft | 185 kts | 36° |
| 2026-04-21 03:52 | 33.18114 | -116.55082 | 15016 ft | 185 kts | 37° |
| 2026-04-21 03:52 | 33.19168 | -116.54182 | 15020 ft | 186 kts | 37° |
| 2026-04-21 03:53 | 33.20221 | -116.53272 | 15023 ft | 186 kts | 37° |
| 2026-04-21 03:53 | 33.21262 | -116.52371 | 15033 ft | 186 kts | 37° |
| 2026-04-21 03:53 | 33.22319 | -116.51451 | 15042 ft | 186 kts | 37° |
| 2026-04-21 03:53 | 33.23365 | -116.50540 | 15051 ft | 186 kts | 37° |
| 2026-04-21 03:54 | 33.24406 | -116.49633 | 15051 ft | 187 kts | 38° |
| 2026-04-21 03:54 | 33.25468 | -116.48704 | 15040 ft | 187 kts | 38° |
| 2026-04-21 03:54 | 33.26517 | -116.47784 | 15025 ft | 187 kts | 38° |
| 2026-04-21 03:54 | 33.27566 | -116.46861 | 15023 ft | 188 kts | 38° |
| 2026-04-21 03:55 | 33.28615 | -116.45945 | 15018 ft | 188 kts | 38° |
| 2026-04-21 03:55 | 33.29671 | -116.45023 | 15008 ft | 188 kts | 37° |
| 2026-04-21 03:55 | 33.30743 | -116.44107 | 14989 ft | 188 kts | 37° |
| 2026-04-21 03:55 | 33.31797 | -116.43201 | 14997 ft | 187 kts | 37° |
| 2026-04-21 03:56 | 33.32867 | -116.42276 | 14987 ft | 188 kts | 37° |
| 2026-04-21 03:56 | 33.33921 | -116.41356 | 14980 ft | 187 kts | 37° |
| 2026-04-21 03:56 | 33.34973 | -116.40435 | 14980 ft | 187 kts | 38° |
| 2026-04-21 03:56 | 33.36014 | -116.39520 | 14983 ft | 187 kts | 38° |
| 2026-04-21 03:57 | 33.37067 | -116.38592 | 14980 ft | 188 kts | 38° |
| 2026-04-21 03:57 | 33.38124 | -116.37659 | 14975 ft | 188 kts | 38° |
| 2026-04-21 03:57 | 33.39182 | -116.36732 | 14959 ft | 187 kts | 37° |
| 2026-04-21 03:57 | 33.40226 | -116.35819 | 14956 ft | 187 kts | 37° |
| 2026-04-21 03:58 | 33.41291 | -116.34905 | 14938 ft | 186 kts | 38° |
| 2026-04-21 03:58 | 33.42341 | -116.34002 | 14942 ft | 186 kts | 38° |
| 2026-04-21 03:58 | 33.43393 | -116.33096 | 14947 ft | 186 kts | 38° |
| 2026-04-21 03:58 | 33.44447 | -116.32185 | 14957 ft | 186 kts | 38° |
| 2026-04-21 03:59 | 33.45505 | -116.31269 | 14954 ft | 186 kts | 38° |
| 2026-04-21 03:59 | 33.46549 | -116.30363 | 14951 ft | 186 kts | 38° |
| 2026-04-21 03:59 | 33.47613 | -116.29436 | 14947 ft | 186 kts | 38° |
| 2026-04-21 04:00 | 33.49707 | -116.27606 | 14951 ft | 186 kts | 38° |
| 2026-04-21 04:00 | 33.50760 | -116.26683 | 14943 ft | 187 kts | 38° |
| 2026-04-21 04:00 | 33.51801 | -116.25766 | 14933 ft | 187 kts | 38° |
| 2026-04-21 04:00 | 33.52848 | -116.24843 | 14923 ft | 186 kts | 38° |
| 2026-04-21 04:01 | 33.53889 | -116.23923 | 14929 ft | 186 kts | 38° |
| 2026-04-21 04:01 | 33.54930 | -116.22998 | 14915 ft | 186 kts | 39° |
| 2026-04-21 04:01 | 33.55960 | -116.22082 | 14911 ft | 186 kts | 38° |
| 2026-04-21 04:01 | 33.57006 | -116.21148 | 14906 ft | 185 kts | 39° |
| 2026-04-21 04:02 | 33.58044 | -116.20220 | 14903 ft | 185 kts | 39° |
| 2026-04-21 04:02 | 33.59074 | -116.19305 | 14890 ft | 185 kts | 38° |
| 2026-04-21 04:02 | 33.60111 | -116.18410 | 14898 ft | 185 kts | 38° |
| 2026-04-21 04:02 | 33.61161 | -116.17504 | 14895 ft | 185 kts | 38° |
| 2026-04-21 04:03 | 33.62215 | -116.16591 | 14903 ft | 186 kts | 38° |
| 2026-04-21 04:03 | 33.63266 | -116.15679 | 14891 ft | 186 kts | 38° |
| 2026-04-21 04:03 | 33.64334 | -116.14806 | 14901 ft | 186 kts | 36° |
| 2026-04-21 04:03 | 33.65411 | -116.13941 | 14907 ft | 185 kts | 36° |
| 2026-04-21 04:04 | 33.66494 | -116.13086 | 14900 ft | 185 kts | 34° |
| 2026-04-21 04:04 | 33.67577 | -116.12242 | 14900 ft | 185 kts | 35° |
| 2026-04-21 04:04 | 33.68656 | -116.11399 | 14911 ft | 184 kts | 35° |
| 2026-04-21 04:04 | 33.69736 | -116.10554 | 14911 ft | 185 kts | 34° |
| 2026-04-21 04:05 | 33.70812 | -116.09708 | 14915 ft | 185 kts | 35° |
| 2026-04-21 04:05 | 33.71886 | -116.08862 | 14916 ft | 185 kts | 35° |
| 2026-04-21 04:05 | 33.72966 | -116.08009 | 14918 ft | 185 kts | 35° |
| 2026-04-21 04:05 | 33.74042 | -116.07153 | 14930 ft | 185 kts | 35° |
| 2026-04-21 04:06 | 33.75115 | -116.06297 | 14948 ft | 186 kts | 35° |
| 2026-04-21 04:06 | 33.76196 | -116.05430 | 14951 ft | 186 kts | 36° |
| 2026-04-21 04:06 | 33.77280 | -116.04556 | 14954 ft | 186 kts | 36° |
| 2026-04-21 04:06 | 33.78343 | -116.03696 | 14961 ft | 186 kts | 36° |
| 2026-04-21 04:07 | 33.79431 | -116.02813 | 14963 ft | 186 kts | 36° |
| 2026-04-21 04:07 | 33.80503 | -116.01941 | 14966 ft | 186 kts | 36° |
| 2026-04-21 04:07 | 33.81565 | -116.01072 | 14976 ft | 186 kts | 36° |
| 2026-04-21 04:07 | 33.82643 | -116.00187 | 14974 ft | 186 kts | 36° |
| 2026-04-21 04:08 | 33.83697 | -115.99318 | 14973 ft | 185 kts | 36° |
| 2026-04-21 04:08 | 33.84771 | -115.98430 | 14973 ft | 185 kts | 36° |
| 2026-04-21 04:08 | 33.85823 | -115.97556 | 14977 ft | 185 kts | 36° |
| 2026-04-21 04:08 | 33.86898 | -115.96679 | 14981 ft | 185 kts | 35° |
| 2026-04-21 04:09 | 33.87966 | -115.95821 | 14978 ft | 185 kts | 36° |
| 2026-04-21 04:09 | 33.89038 | -115.94956 | 14980 ft | 185 kts | 35° |
| 2026-04-21 04:09 | 33.90110 | -115.94089 | 14984 ft | 184 kts | 35° |
| 2026-04-21 04:09 | 33.91180 | -115.93231 | 14985 ft | 184 kts | 35° |
| 2026-04-21 04:10 | 33.92254 | -115.92373 | 15000 ft | 185 kts | 35° |
| 2026-04-21 04:10 | 33.93316 | -115.91522 | 14982 ft | 185 kts | 36° |
| 2026-04-21 04:10 | 33.94385 | -115.90661 | 14978 ft | 185 kts | 36° |
| 2026-04-21 04:10 | 33.95461 | -115.89792 | 14975 ft | 185 kts | 36° |
| 2026-04-21 04:11 | 33.96537 | -115.88921 | 14972 ft | 185 kts | 36° |
| 2026-04-21 04:11 | 33.97594 | -115.88062 | 14969 ft | 185 kts | 36° |
| 2026-04-21 04:11 | 33.98674 | -115.87182 | 14969 ft | 185 kts | 36° |
| 2026-04-21 04:11 | 33.99739 | -115.86311 | 14963 ft | 185 kts | 36° |
| 2026-04-21 04:12 | 34.00809 | -115.85442 | 14960 ft | 185 kts | 35° |
| 2026-04-21 04:12 | 34.01882 | -115.84579 | 14953 ft | 185 kts | 36° |
| 2026-04-21 04:12 | 34.02948 | -115.83719 | 14943 ft | 185 kts | 36° |
| 2026-04-21 04:12 | 34.04022 | -115.82848 | 14936 ft | 185 kts | 36° |
| 2026-04-21 04:13 | 34.05090 | -115.81979 | 14932 ft | 185 kts | 36° |
| 2026-04-21 04:13 | 34.06154 | -115.81114 | 14930 ft | 185 kts | 36° |
| 2026-04-21 04:13 | 34.07229 | -115.80248 | 14927 ft | 185 kts | 35° |
| 2026-04-21 04:13 | 34.08300 | -115.79381 | 14925 ft | 185 kts | 37° |
| 2026-04-21 04:14 | 34.09365 | -115.78504 | 14925 ft | 185 kts | 36° |
| 2026-04-21 04:14 | 34.10430 | -115.77632 | 14921 ft | 184 kts | 36° |
| 2026-04-21 04:14 | 34.11440 | -115.76691 | 14915 ft | 183 kts | 45° |
| 2026-04-21 04:14 | 34.12391 | -115.75675 | 14916 ft | 182 kts | 45° |
| 2026-04-21 04:15 | 34.13322 | -115.74642 | 14918 ft | 182 kts | 45° |
| 2026-04-21 04:15 | 34.14248 | -115.73605 | 14916 ft | 183 kts | 45° |
| 2026-04-21 04:15 | 34.15181 | -115.72556 | 14916 ft | 183 kts | 45° |
| 2026-04-21 04:15 | 34.16110 | -115.71514 | 14915 ft | 183 kts | 45° |
| 2026-04-21 04:16 | 34.17050 | -115.70459 | 14917 ft | 183 kts | 45° |
| 2026-04-21 04:16 | 34.17979 | -115.69418 | 14921 ft | 183 kts | 46° |
| 2026-04-21 04:16 | 34.18910 | -115.68372 | 14923 ft | 182 kts | 45° |
| 2026-04-21 04:16 | 34.19840 | -115.67328 | 14922 ft | 183 kts | 46° |
| 2026-04-21 04:17 | 34.20774 | -115.66276 | 14923 ft | 182 kts | 46° |
| 2026-04-21 04:17 | 34.21703 | -115.65232 | 14924 ft | 182 kts | 46° |
| 2026-04-21 04:17 | 34.22633 | -115.64185 | 14924 ft | 183 kts | 46° |
| 2026-04-21 04:17 | 34.23558 | -115.63142 | 14924 ft | 182 kts | 46° |
| 2026-04-21 04:18 | 34.24490 | -115.62096 | 14923 ft | 182 kts | 46° |
| 2026-04-21 04:18 | 34.25418 | -115.61051 | 14922 ft | 183 kts | 45° |
| 2026-04-21 04:18 | 34.26345 | -115.60008 | 14917 ft | 183 kts | 45° |
| 2026-04-21 04:18 | 34.27276 | -115.58958 | 14915 ft | 182 kts | 45° |
| 2026-04-21 04:19 | 34.28214 | -115.57901 | 14910 ft | 183 kts | 45° |
| 2026-04-21 04:19 | 34.29134 | -115.56862 | 14903 ft | 183 kts | 45° |
| 2026-04-21 04:19 | 34.30070 | -115.55808 | 14897 ft | 183 kts | 46° |
| 2026-04-21 04:19 | 34.31005 | -115.54752 | 14893 ft | 183 kts | 46° |
| 2026-04-21 04:20 | 34.31938 | -115.53699 | 14891 ft | 183 kts | 46° |
| 2026-04-21 04:20 | 34.32994 | -115.52847 | 14887 ft | 185 kts | 22° |
| 2026-04-21 04:20 | 34.34199 | -115.52261 | 14887 ft | 186 kts | 20° |
| 2026-04-21 04:20 | 34.35405 | -115.51736 | 14884 ft | 186 kts | 20° |
| 2026-04-21 04:21 | 34.36636 | -115.51205 | 14880 ft | 186 kts | 20° |
| 2026-04-21 04:21 | 34.37856 | -115.50671 | 14881 ft | 186 kts | 20° |
| 2026-04-21 04:21 | 34.39065 | -115.50144 | 14876 ft | 186 kts | 21° |
| 2026-04-21 04:21 | 34.40288 | -115.49612 | 14874 ft | 186 kts | 20° |
| 2026-04-21 04:22 | 34.41519 | -115.49078 | 14876 ft | 186 kts | 20° |
| 2026-04-21 04:22 | 34.42740 | -115.48545 | 14876 ft | 186 kts | 20° |
| 2026-04-21 04:22 | 34.43958 | -115.48013 | 14875 ft | 186 kts | 20° |
| 2026-04-21 04:22 | 34.45188 | -115.47478 | 14877 ft | 186 kts | 20° |
| 2026-04-21 04:23 | 34.46417 | -115.46945 | 14874 ft | 187 kts | 20° |
| 2026-04-21 04:23 | 34.47639 | -115.46414 | 14873 ft | 187 kts | 20° |
| 2026-04-21 04:23 | 34.48862 | -115.45880 | 14871 ft | 187 kts | 20° |
| 2026-04-21 04:23 | 34.50099 | -115.45342 | 14871 ft | 187 kts | 20° |
| 2026-04-21 04:24 | 34.51333 | -115.44804 | 14874 ft | 187 kts | 20° |
| 2026-04-21 04:24 | 34.52558 | -115.44270 | 14877 ft | 187 kts | 20° |
| 2026-04-21 04:24 | 34.53793 | -115.43732 | 14881 ft | 187 kts | 20° |
| 2026-04-21 04:24 | 34.55016 | -115.43197 | 14884 ft | 187 kts | 20° |
| 2026-04-21 04:25 | 34.56239 | -115.42664 | 14888 ft | 187 kts | 20° |
| 2026-04-21 04:25 | 34.57482 | -115.42120 | 14891 ft | 187 kts | 20° |
| 2026-04-21 04:25 | 34.58698 | -115.41589 | 14896 ft | 187 kts | 20° |
| 2026-04-21 04:25 | 34.59944 | -115.41045 | 14901 ft | 187 kts | 20° |
| 2026-04-21 04:26 | 34.61173 | -115.40508 | 14903 ft | 188 kts | 20° |
| 2026-04-21 04:26 | 34.62398 | -115.39971 | 14904 ft | 188 kts | 20° |
| 2026-04-21 04:26 | 34.63632 | -115.39432 | 14903 ft | 188 kts | 20° |
| 2026-04-21 04:26 | 34.64870 | -115.38890 | 14904 ft | 188 kts | 20° |
| 2026-04-21 04:27 | 34.66112 | -115.38348 | 14906 ft | 188 kts | 20° |
| 2026-04-21 04:27 | 34.67339 | -115.37811 | 14908 ft | 188 kts | 20° |
| 2026-04-21 04:27 | 34.68584 | -115.37265 | 14910 ft | 188 kts | 20° |
| 2026-04-21 04:27 | 34.69814 | -115.36728 | 14914 ft | 187 kts | 20° |
| 2026-04-21 04:28 | 34.71036 | -115.36192 | 14913 ft | 188 kts | 20° |
| 2026-04-21 04:28 | 34.72284 | -115.35644 | 14914 ft | 188 kts | 20° |
| 2026-04-21 04:28 | 34.73518 | -115.35104 | 14916 ft | 188 kts | 20° |
| 2026-04-21 04:28 | 34.74754 | -115.34562 | 14916 ft | 188 kts | 20° |
| 2026-04-21 04:29 | 34.75979 | -115.34027 | 14920 ft | 188 kts | 21° |
| 2026-04-21 04:29 | 34.77223 | -115.33479 | 14924 ft | 188 kts | 21° |
| 2026-04-21 04:29 | 34.78455 | -115.32939 | 14926 ft | 188 kts | 21° |
| 2026-04-21 04:29 | 34.79652 | -115.32286 | 14926 ft | 188 kts | 26° |
| 2026-04-21 04:30 | 34.80836 | -115.31612 | 14928 ft | 187 kts | 26° |
| 2026-04-21 04:30 | 34.82032 | -115.30940 | 14929 ft | 187 kts | 26° |
| 2026-04-21 04:30 | 34.83210 | -115.30287 | 14929 ft | 187 kts | 26° |
| 2026-04-21 04:30 | 34.84408 | -115.29620 | 14929 ft | 188 kts | 26° |
| 2026-04-21 04:31 | 34.85604 | -115.28956 | 14931 ft | 188 kts | 26° |
| 2026-04-21 04:31 | 34.86805 | -115.28289 | 14933 ft | 188 kts | 26° |
| 2026-04-21 04:31 | 34.87986 | -115.27632 | 14935 ft | 188 kts | 26° |
| 2026-04-21 04:31 | 34.89186 | -115.26967 | 14938 ft | 188 kts | 26° |
| 2026-04-21 04:32 | 34.90386 | -115.26298 | 14940 ft | 188 kts | 26° |
| 2026-04-21 04:32 | 34.91569 | -115.25636 | 14942 ft | 188 kts | 26° |
| 2026-04-21 04:32 | 34.92779 | -115.24962 | 14947 ft | 188 kts | 26° |
| 2026-04-21 04:32 | 34.93969 | -115.24300 | 14949 ft | 188 kts | 26° |
| 2026-04-21 04:33 | 34.95172 | -115.23633 | 14951 ft | 189 kts | 26° |
| 2026-04-21 04:33 | 34.96352 | -115.22973 | 14955 ft | 188 kts | 26° |
| 2026-04-21 04:33 | 34.97563 | -115.22297 | 14957 ft | 188 kts | 26° |
| 2026-04-21 04:33 | 34.98751 | -115.21636 | 14961 ft | 188 kts | 26° |
| 2026-04-21 04:34 | 34.99940 | -115.20975 | 14962 ft | 188 kts | 26° |
| 2026-04-21 04:34 | 35.01134 | -115.20306 | 14964 ft | 188 kts | 26° |
| 2026-04-21 04:34 | 35.02336 | -115.19634 | 14965 ft | 188 kts | 26° |
| 2026-04-21 04:34 | 35.03531 | -115.18968 | 14966 ft | 189 kts | 26° |
| 2026-04-21 04:35 | 35.04728 | -115.18301 | 14968 ft | 189 kts | 26° |
| 2026-04-21 04:35 | 35.05922 | -115.17634 | 14973 ft | 189 kts | 26° |
| 2026-04-21 04:35 | 35.07127 | -115.16959 | 14976 ft | 189 kts | 26° |
| 2026-04-21 04:35 | 35.08313 | -115.16300 | 15074 ft | 183 kts | 26° |
| 2026-04-21 04:36 | 35.09467 | -115.15655 | 15103 ft | 184 kts | 26° |
| 2026-04-21 04:36 | 35.10660 | -115.14988 | 15104 ft | 185 kts | 26° |
| 2026-04-21 04:36 | 35.11833 | -115.14329 | 15105 ft | 186 kts | 26° |
| 2026-04-21 04:36 | 35.13019 | -115.13663 | 15103 ft | 186 kts | 26° |
| 2026-04-21 04:37 | 35.14206 | -115.12997 | 15104 ft | 187 kts | 26° |
| 2026-04-21 04:37 | 35.15393 | -115.12337 | 15106 ft | 187 kts | 26° |
| 2026-04-21 04:37 | 35.16582 | -115.11677 | 15106 ft | 187 kts | 26° |
| 2026-04-21 04:37 | 35.17776 | -115.11009 | 15109 ft | 187 kts | 26° |
| 2026-04-21 04:38 | 35.18966 | -115.10338 | 15105 ft | 185 kts | 27° |
| 2026-04-21 04:38 | 35.20141 | -115.09673 | 15107 ft | 186 kts | 26° |
| 2026-04-21 04:38 | 35.21309 | -115.09016 | 15109 ft | 187 kts | 26° |
| 2026-04-21 04:38 | 35.22498 | -115.08348 | 15110 ft | 187 kts | 26° |
| 2026-04-21 04:39 | 35.23697 | -115.07686 | 15111 ft | 187 kts | 26° |
| 2026-04-21 04:39 | 35.24885 | -115.07025 | 15110 ft | 188 kts | 26° |
| 2026-04-21 04:39 | 35.26076 | -115.06358 | 15111 ft | 188 kts | 26° |
| 2026-04-21 04:39 | 35.27262 | -115.05692 | 15108 ft | 188 kts | 26° |
| 2026-04-21 04:40 | 35.28462 | -115.05012 | 15108 ft | 188 kts | 26° |
| 2026-04-21 04:40 | 35.29653 | -115.04335 | 15110 ft | 187 kts | 26° |
| 2026-04-21 04:40 | 35.30828 | -115.03674 | 15107 ft | 187 kts | 26° |
| 2026-04-21 04:40 | 35.32021 | -115.03001 | 15103 ft | 188 kts | 26° |
| 2026-04-21 04:41 | 35.33154 | -115.02344 | 14912 ft | 176 kts | 27° |
| 2026-04-21 04:41 | 35.34264 | -115.01725 | 14789 ft | 169 kts | 26° |
| 2026-04-21 04:41 | 35.35348 | -115.01113 | 14317 ft | 183 kts | 28° |
| 2026-04-21 04:41 | 35.36576 | -115.00411 | 13698 ft | 199 kts | 28° |
| 2026-04-21 04:42 | 35.37751 | -114.99751 | 13629 ft | 176 kts | 28° |
| 2026-04-21 04:42 | 35.38889 | -114.99109 | 13092 ft | 188 kts | 28° |
| 2026-04-21 04:42 | 35.40086 | -114.98425 | 12644 ft | 185 kts | 29° |
| 2026-04-21 04:42 | 35.41198 | -114.97804 | 12266 ft | 173 kts | 28° |
| 2026-04-21 04:43 | 35.42316 | -114.97163 | 11529 ft | 184 kts | 29° |
| 2026-04-21 04:43 | 35.43458 | -114.96518 | 11060 ft | 175 kts | 28° |
| 2026-04-21 04:43 | 35.44531 | -114.95915 | 10592 ft | 168 kts | 28° |
| 2026-04-21 04:43 | 35.45585 | -114.95346 | 10074 ft | 167 kts | 21° |
| 2026-04-21 04:44 | 35.46772 | -114.95392 | 9366 ft | 175 kts | 343° |
| 2026-04-21 04:44 | 35.47854 | -114.95781 | 9175 ft | 150 kts | 340° |
| 2026-04-21 04:44 | 35.48851 | -114.96204 | 8755 ft | 146 kts | 340° |
| 2026-04-21 04:44 | 35.49766 | -114.96600 | 8522 ft | 140 kts | 339° |
| 2026-04-21 04:45 | 35.50711 | -114.97006 | 8167 ft | 144 kts | 339° |
| 2026-04-21 04:45 | 35.51634 | -114.97403 | 7928 ft | 139 kts | 339° |
| 2026-04-21 04:45 | 35.52555 | -114.97793 | 7558 ft | 143 kts | 340° |
| 2026-04-21 04:45 | 35.53480 | -114.98186 | 7292 ft | 137 kts | 340° |
| 2026-04-21 04:46 | 35.54427 | -114.98614 | 7300 ft | 150 kts | 336° |
| 2026-04-21 04:46 | 35.55444 | -114.99071 | 7312 ft | 159 kts | 337° |
| 2026-04-21 04:46 | 35.56511 | -114.99541 | 7311 ft | 165 kts | 338° |
| 2026-04-21 04:46 | 35.57611 | -115.00017 | 7311 ft | 169 kts | 338° |
| 2026-04-21 04:47 | 35.58731 | -115.00498 | 7307 ft | 171 kts | 338° |
| 2026-04-21 04:47 | 35.59870 | -115.00983 | 7303 ft | 174 kts | 339° |
| 2026-04-21 04:47 | 35.61035 | -115.01476 | 7299 ft | 177 kts | 339° |
| 2026-04-21 04:47 | 35.62199 | -115.01966 | 7295 ft | 179 kts | 339° |
| 2026-04-21 04:48 | 35.63388 | -115.02464 | 7287 ft | 180 kts | 339° |
| 2026-04-21 04:48 | 35.64580 | -115.02964 | 7278 ft | 181 kts | 339° |
| 2026-04-21 04:48 | 35.65780 | -115.03466 | 7269 ft | 181 kts | 339° |
| 2026-04-21 04:48 | 35.66914 | -115.03921 | 7155 ft | 157 kts | 341° |
| 2026-04-21 04:49 | 35.67952 | -115.04372 | 6969 ft | 159 kts | 336° |
| 2026-04-21 04:49 | 35.69007 | -115.04833 | 7053 ft | 163 kts | 338° |
| 2026-04-21 04:49 | 35.69989 | -115.05507 | 7064 ft | 164 kts | 309° |
| 2026-04-21 04:49 | 35.70796 | -115.06548 | 7066 ft | 169 kts | 309° |
| 2026-04-21 04:50 | 35.71594 | -115.07609 | 7061 ft | 171 kts | 309° |
| 2026-04-21 04:50 | 35.72419 | -115.08705 | 7056 ft | 173 kts | 308° |
| 2026-04-21 04:50 | 35.73232 | -115.09787 | 7051 ft | 174 kts | 308° |
| 2026-04-21 04:50 | 35.74068 | -115.10906 | 7049 ft | 175 kts | 308° |
| 2026-04-21 04:51 | 35.74898 | -115.12009 | 7046 ft | 175 kts | 309° |
| 2026-04-21 04:51 | 35.75724 | -115.13108 | 7056 ft | 175 kts | 309° |
| 2026-04-21 04:51 | 35.76559 | -115.14217 | 7062 ft | 175 kts | 309° |
| 2026-04-21 04:51 | 35.77492 | -115.15183 | 7053 ft | 179 kts | 329° |
| 2026-04-21 04:52 | 35.78596 | -115.15878 | 7062 ft | 178 kts | 329° |
| 2026-04-21 04:52 | 35.79723 | -115.16573 | 7066 ft | 179 kts | 330° |
| 2026-04-21 04:52 | 35.80847 | -115.17265 | 7070 ft | 179 kts | 330° |
| 2026-04-21 04:52 | 35.81970 | -115.17960 | 7072 ft | 179 kts | 330° |
| 2026-04-21 04:53 | 35.83084 | -115.18648 | 7070 ft | 179 kts | 330° |
| 2026-04-21 04:53 | 35.84200 | -115.19335 | 7070 ft | 179 kts | 330° |
| 2026-04-21 04:53 | 35.85318 | -115.20026 | 7071 ft | 178 kts | 330° |
| 2026-04-21 04:53 | 35.86430 | -115.20711 | 7071 ft | 178 kts | 330° |
| 2026-04-21 04:54 | 35.87544 | -115.21395 | 7069 ft | 178 kts | 330° |
| 2026-04-21 04:54 | 35.88668 | -115.22086 | 7069 ft | 178 kts | 330° |
| 2026-04-21 04:54 | 35.89777 | -115.22765 | 7070 ft | 178 kts | 330° |
| 2026-04-21 04:54 | 35.90897 | -115.23457 | 7069 ft | 178 kts | 330° |
| 2026-04-21 04:55 | 35.92039 | -115.24035 | 7059 ft | 181 kts | 348° |
| 2026-04-21 04:55 | 35.93288 | -115.24267 | 7070 ft | 180 kts | 349° |
| 2026-04-21 04:55 | 35.94529 | -115.24487 | 7070 ft | 181 kts | 350° |
| 2026-04-21 04:55 | 35.95786 | -115.24712 | 7069 ft | 181 kts | 350° |
| 2026-04-21 04:56 | 35.97035 | -115.24938 | 7069 ft | 181 kts | 351° |
| 2026-04-21 04:56 | 35.98292 | -115.25164 | 7069 ft | 181 kts | 350° |
| 2026-04-21 04:56 | 35.99533 | -115.25387 | 7068 ft | 181 kts | 351° |
| 2026-04-21 04:56 | 36.00777 | -115.25609 | 7068 ft | 181 kts | 350° |
| 2026-04-21 04:57 | 36.02040 | -115.25834 | 7069 ft | 181 kts | 351° |
| 2026-04-21 04:57 | 36.03281 | -115.26057 | 7069 ft | 181 kts | 350° |
| 2026-04-21 04:57 | 36.04528 | -115.26280 | 7070 ft | 181 kts | 351° |
| 2026-04-21 04:57 | 36.05789 | -115.26506 | 7069 ft | 181 kts | 351° |
| 2026-04-21 04:58 | 36.07041 | -115.26732 | 7069 ft | 181 kts | 350° |
| 2026-04-21 04:58 | 36.08290 | -115.26957 | 7068 ft | 181 kts | 350° |
| 2026-04-21 04:58 | 36.09537 | -115.27179 | 7069 ft | 182 kts | 350° |
| 2026-04-21 04:58 | 36.10797 | -115.27404 | 7066 ft | 182 kts | 350° |
| 2026-04-21 04:59 | 36.12049 | -115.27631 | 7066 ft | 182 kts | 351° |
| 2026-04-21 04:59 | 36.13306 | -115.27856 | 7064 ft | 179 kts | 351° |
| 2026-04-21 04:59 | 36.14525 | -115.28072 | 7065 ft | 177 kts | 351° |
| 2026-04-21 04:59 | 36.15754 | -115.28292 | 7066 ft | 176 kts | 351° |
| 2026-04-21 05:00 | 36.16971 | -115.28410 | 7024 ft | 179 kts | 6° |
| 2026-04-21 05:00 | 36.18180 | -115.27833 | 6859 ft | 187 kts | 36° |
| 2026-04-21 05:00 | 36.20301 | -115.26341 | 6088 ft | 145 kts | 30° |
| 2026-04-21 05:01 | 36.21176 | -115.25830 | 5224 ft | 147 kts | 45° |
| 2026-04-21 05:01 | 36.21737 | -115.24927 | 4542 ft | 124 kts | 89° |
| 2026-04-21 05:01 | 36.21953 | -115.23987 | 3822 ft | 121 kts | 94° |
| 2026-04-21 05:01 | 36.22080 | -115.23065 | 3253 ft | 100 kts | 117° |
| 2026-04-21 05:02 | 36.21977 | -115.22257 | 2929 ft | 96 kts | 96° |
| 2026-04-21 05:02 | 36.21961 | -115.21548 | 2677 ft | 73 kts | 116° |
| 2026-04-21 05:02 | 36.21822 | -115.20922 | 2469 ft | 73 kts | 124° |
| 2026-04-21 05:02 | 36.21569 | -115.20419 | 2287 ft | 65 kts | 138° |
| 2026-04-21 05:03 | 36.21294 | -115.20049 | 2203 ft | 49 kts | 137° |
| 2026-04-21 05:03 | 36.21166 | -115.19887 | 2200 ft | 10 kts | 141° |
| 2026-04-21 05:03 | 36.21089 | -115.19799 | 2197 ft | 19 kts | 162° |